Time;durP1;ratioP1;P1;durP2;ratioP2;P2;SDS_P1;SDS_P2;PMS_P1;PMS_P2;Temp;Humidity;BMP_temperature;BMP_pressure;BME280_temperature;BME280_humidity;BME280_pressure;Samples;Min_cycle;Max_cycle;Signal;HPM_P1;HPM_P2
2022/01/12 00:00:05;;;;;;;4.90;3.42;;;17.90;53.90;;;;;;4979895;28;20035;-66
2022/01/12 00:02:31;;;;;;;5.60;3.20;;;17.90;53.90;;;;;;4973210;28;20026;-67
2022/01/12 00:04:57;;;;;;;3.72;2.80;;;18.00;54.00;;;;;;4965487;28;20105;-67
2022/01/12 00:07:23;;;;;;;4.32;3.13;;;18.00;54.10;;;;;;4984850;28;20125;-67
2022/01/12 00:09:48;;;;;;;4.70;3.50;;;18.00;54.80;;;;;;4985593;28;20126;-68
2022/01/12 00:12:14;;;;;;;5.72;3.30;;;18.00;54.20;;;;;;4973287;28;20030;-68
2022/01/12 00:14:39;;;;;;;4.28;3.03;;;18.00;54.20;;;;;;4981930;28;20026;-67
2022/01/12 00:17:05;;;;;;;5.78;2.88;;;18.00;54.10;;;;;;4969912;28;20513;-67
2022/01/12 00:19:30;;;;;;;4.85;3.10;;;18.00;54.20;;;;;;4975105;28;20482;-67
2022/01/12 00:21:56;;;;;;;3.05;2.58;;;18.00;54.20;;;;;;4965451;28;20038;-67
2022/01/12 00:24:25;;;;;;;4.55;2.95;;;18.00;54.10;;;;;;4973756;28;20031;-67
2022/01/12 00:35:03;;;;;;;3.10;2.67;;;17.90;53.90;;;;;;4969947;28;20065;-67
2022/01/12 00:37:29;;;;;;;3.60;2.92;;;17.90;53.70;;;;;;4980858;28;20059;-67
2022/01/12 00:39:58;;;;;;;4.13;2.60;;;17.90;53.80;;;;;;4970266;28;20081;-67
2022/01/12 00:42:26;;;;;;;3.38;2.50;;;18.00;53.80;;;;;;4966698;28;20026;-67
2022/01/12 00:44:53;;;;;;;3.00;2.25;;;17.90;53.80;;;;;;4984872;28;20124;-68
2022/01/12 00:47:18;;;;;;;4.70;2.83;;;17.90;53.70;;;;;;4972639;28;20026;-68
2022/01/12 00:49:44;;;;;;;3.92;2.67;;;17.90;53.80;;;;;;4970768;28;20031;-67
2022/01/12 00:52:09;;;;;;;3.42;2.72;;;18.00;53.80;;;;;;4967202;28;20022;-67
2022/01/12 00:54:35;;;;;;;3.50;2.60;;;18.00;53.80;;;;;;4978962;28;20030;-68
2022/01/12 00:57:00;;;;;;;4.85;2.70;;;18.00;53.90;;;;;;4967041;28;20023;-68
2022/01/12 00:59:26;;;;;;;3.67;2.53;;;18.00;53.80;;;;;;4976900;28;20033;-67
2022/01/12 01:01:51;;;;;;;3.97;2.72;;;18.00;53.80;;;;;;4985137;28;20026;-67
2022/01/12 01:04:17;;;;;;;3.60;2.58;;;18.00;53.90;;;;;;4972479;28;20062;-67
2022/01/12 01:06:42;;;;;;;5.95;2.53;;;18.00;53.90;;;;;;4970269;28;20031;-67
2022/01/12 01:09:08;;;;;;;4.18;2.40;;;18.00;53.80;;;;;;4969440;28;20030;-67
2022/01/12 01:11:33;;;;;;;3.47;2.13;;;18.00;53.80;;;;;;4981355;28;20050;-67
2022/01/12 01:14:02;;;;;;;3.78;2.50;;;18.00;53.70;;;;;;4972032;28;20035;-68
2022/01/12 01:16:49;;;;;;;2.92;2.17;;;18.00;53.60;;;;;;4986999;28;20033;-67
2022/01/12 01:27:28;;;;;;;3.58;1.98;;;18.00;53.30;;;;;;4988194;28;20038;-67
2022/01/12 01:29:54;;;;;;;2.95;2.35;;;18.00;53.30;;;;;;4980437;28;20022;-68
2022/01/12 01:32:20;;;;;;;4.15;2.47;;;18.00;53.10;;;;;;4974906;28;20022;-68
2022/01/12 01:34:47;;;;;;;4.00;2.60;;;18.00;53.10;;;;;;4985365;28;20096;-68
2022/01/12 01:37:13;;;;;;;2.88;2.58;;;18.00;53.10;;;;;;4986149;28;20022;-67
2022/01/12 01:39:39;;;;;;;3.60;2.42;;;18.00;52.90;;;;;;4969360;28;20097;-68
2022/01/12 01:42:13;;;;;;;2.85;2.38;;;18.00;52.80;;;;;;4988491;28;20050;-67
2022/01/12 01:55:18;;;;;;;2.97;2.03;;;18.10;52.30;;;;;;4968939;28;20037;-67
2022/01/12 01:57:43;;;;;;;3.03;2.20;;;18.10;52.10;;;;;;4984544;28;20030;-68
2022/01/12 02:00:11;;;;;;;3.65;2.08;;;18.10;52.10;;;;;;4971768;28;20019;-68
2022/01/12 02:02:37;;;;;;;3.10;2.15;;;18.10;52.00;;;;;;4981146;28;20033;-67
2022/01/12 02:05:03;;;;;;;2.55;2.20;;;18.10;52.00;;;;;;4976549;28;20985;-67
2022/01/12 02:07:28;;;;;;;4.65;2.65;;;18.10;52.00;;;;;;4988656;28;20709;-67
2022/01/12 02:09:54;;;;;;;2.67;2.22;;;18.10;52.00;;;;;;4982930;28;20065;-67
2022/01/12 02:12:27;;;;;;;3.20;2.22;;;18.10;51.90;;;;;;4970696;28;20545;-67
2022/01/12 02:14:54;;;;;;;4.25;2.30;;;18.10;51.90;;;;;;4972805;28;20085;-68
2022/01/12 02:17:23;;;;;;;4.90;2.28;;;18.00;51.90;;;;;;4977929;28;20031;-68
2022/01/12 02:36:13;;;;;;;2.42;1.98;;;17.90;52.00;;;;;;4964527;28;20105;-67
2022/01/12 02:41:23;;;;;;;2.40;1.90;;;17.90;52.00;;;;;;4968535;28;20030;-67
2022/01/12 02:54:52;;;;;;;3.97;1.95;;;17.80;52.00;;;;;;4969846;28;20034;-67
2022/01/12 02:57:18;;;;;;;3.60;2.20;;;17.80;52.00;;;;;;4964246;28;20059;-68
2022/01/12 03:00:19;;;;;;;2.88;1.92;;;17.90;51.90;;;;;;4971373;28;20521;-68
2022/01/12 03:02:40;;;;;;;3.17;2.13;;;17.80;51.80;;;;;;4963280;28;20102;-66
2022/01/12 03:07:38;;;;;;;2.78;2.17;;;17.90;51.80;;;;;;4982993;28;20045;-66
2022/01/12 03:10:04;;;;;;;2.92;2.03;;;17.90;51.70;;;;;;4973909;28;20498;-67
2022/01/12 03:12:30;;;;;;;3.03;2.00;;;17.90;51.70;;;;;;4950675;28;20035;-66
2022/01/12 03:14:55;;;;;;;3.17;1.88;;;17.90;51.70;;;;;;4964576;28;20027;-68
2022/01/12 03:17:21;;;;;;;4.15;2.15;;;17.90;51.70;;;;;;4966767;28;20042;-68
2022/01/12 03:19:46;;;;;;;3.15;1.83;;;17.90;51.70;;;;;;4965269;28;20038;-67
2022/01/12 03:22:12;;;;;;;6.65;2.58;;;17.80;51.60;;;;;;4985282;28;20042;-67
2022/01/12 03:24:38;;;;;;;2.45;1.70;;;17.90;51.60;;;;;;4986161;28;20080;-67
2022/01/12 03:27:05;;;;;;;2.85;1.80;;;17.90;51.60;;;;;;4973428;28;20033;-67
2022/01/12 03:29:31;;;;;;;3.38;2.10;;;17.80;51.60;;;;;;4986889;28;20034;-67
2022/01/12 03:31:57;;;;;;;3.58;2.00;;;17.80;51.60;;;;;;4975853;28;20081;-68
2022/01/12 03:34:26;;;;;;;2.80;1.73;;;17.80;51.50;;;;;;4972002;28;20409;-67
2022/01/12 03:39:24;;;;;;;3.58;2.05;;;17.90;51.60;;;;;;4978290;28;20034;-67
2022/01/12 03:41:49;;;;;;;2.22;1.67;;;17.80;51.50;;;;;;4972419;28;20019;-68
2022/01/12 03:44:15;;;;;;;1.83;1.60;;;17.80;51.50;;;;;;4968750;28;20023;-68
2022/01/12 03:46:44;;;;;;;3.28;1.90;;;17.80;51.50;;;;;;4973334;28;20109;-67
2022/01/12 03:49:10;;;;;;;2.13;1.80;;;17.80;51.50;;;;;;4975823;28;20030;-67
2022/01/12 03:51:35;;;;;;;3.03;2.00;;;17.80;51.50;;;;;;4975958;28;20535;-66
2022/01/12 03:54:00;;;;;;;2.40;1.77;;;17.80;51.50;;;;;;4983055;28;20392;-67
2022/01/12 03:56:26;;;;;;;2.95;1.80;;;17.80;51.50;;;;;;4977925;28;20023;-67
2022/01/12 03:58:51;;;;;;;3.03;1.80;;;17.80;51.40;;;;;;4980220;28;20038;-67
2022/01/12 04:01:17;;;;;;;1.90;1.58;;;17.80;51.40;;;;;;4980972;28;20034;-68
2022/01/12 04:03:46;;;;;;;3.92;1.90;;;17.80;51.60;;;;;;4983094;28;20101;-67
2022/01/12 04:08:56;;;;;;;3.38;1.70;;;17.70;51.80;;;;;;4973549;28;20169;-67
2022/01/12 04:11:21;;;;;;;2.72;1.90;;;17.70;52.00;;;;;;4970302;28;20018;-66
2022/01/12 04:13:48;;;;;;;2.60;1.80;;;17.70;52.10;;;;;;4975401;28;20081;-68
2022/01/12 04:16:14;;;;;;;2.55;1.67;;;17.70;52.20;;;;;;4977672;28;20102;-67
2022/01/12 04:18:40;;;;;;;2.47;1.55;;;17.70;52.30;;;;;;4967010;28;20797;-67
2022/01/12 04:21:08;;;;;;;2.47;1.60;;;17.70;52.40;;;;;;4964735;28;20031;-67
2022/01/12 04:23:35;;;;;;;2.65;1.70;;;17.70;52.40;;;;;;4970675;28;20022;-66
2022/01/12 04:26:01;;;;;;;2.13;1.60;;;17.70;52.50;;;;;;4968061;28;20038;-67
2022/01/12 04:28:27;;;;;;;3.33;1.50;;;17.70;52.50;;;;;;4976362;28;20034;-65
2022/01/12 04:30:54;;;;;;;2.47;1.60;;;17.70;53.10;;;;;;4972762;28;20031;-66
2022/01/12 04:33:20;;;;;;;1.75;1.30;;;17.70;52.50;;;;;;4977996;28;20173;-68
2022/01/12 04:35:48;;;;;;;2.58;1.50;;;17.70;52.50;;;;;;4983698;28;20125;-67
2022/01/12 04:38:14;;;;;;;2.05;1.50;;;17.70;52.50;;;;;;4985695;28;20037;-67
2022/01/12 04:40:40;;;;;;;1.70;1.30;;;17.70;52.60;;;;;;4988698;28;21573;-67
2022/01/12 04:43:07;;;;;;;2.42;1.77;;;17.70;52.60;;;;;;4973203;28;20029;-66
2022/01/12 04:48:19;;;;;;;3.47;1.52;;;17.70;52.60;;;;;;4977948;28;20038;-67
2022/01/12 04:50:45;;;;;;;2.67;1.60;;;17.80;52.60;;;;;;4985960;28;20057;-67
2022/01/12 04:53:11;;;;;;;2.42;1.70;;;17.70;52.60;;;;;;4986811;28;20026;-65
2022/01/12 04:55:37;;;;;;;1.88;1.60;;;17.80;52.60;;;;;;4985580;28;20026;-68
2022/01/12 04:58:03;;;;;;;2.17;1.40;;;17.80;52.60;;;;;;4987594;28;20049;-67
2022/01/12 05:00:30;;;;;;;3.28;1.73;;;17.80;52.60;;;;;;4983002;28;21608;-67
2022/01/12 05:13:37;;;;;;;1.80;1.40;;;17.80;52.50;;;;;;4979498;28;20037;-67
2022/01/12 05:16:03;;;;;;;2.85;1.60;;;17.80;52.50;;;;;;4982280;28;20030;-68
2022/01/12 05:18:28;;;;;;;2.53;1.65;;;17.80;52.40;;;;;;4976185;28;20022;-67
2022/01/12 05:20:54;;;;;;;2.13;1.42;;;17.80;52.40;;;;;;4986432;28;20134;-67
2022/01/12 05:23:19;;;;;;;3.38;1.60;;;17.80;52.30;;;;;;4966608;28;20054;-68
2022/01/12 05:25:46;;;;;;;3.08;1.70;;;17.80;52.20;;;;;;4989227;28;20793;-68
2022/01/12 05:28:12;;;;;;;1.95;1.55;;;17.80;52.10;;;;;;4979044;28;20045;-67
2022/01/12 05:30:38;;;;;;;2.08;1.50;;;17.80;51.90;;;;;;4975172;28;20035;-67
2022/01/12 05:33:03;;;;;;;2.35;1.45;;;17.90;52.00;;;;;;4979489;28;20043;-67
2022/01/12 05:35:32;;;;;;;1.98;1.40;;;17.90;51.90;;;;;;4983489;28;20027;-67
2022/01/12 05:37:58;;;;;;;2.80;1.75;;;17.90;51.70;;;;;;4984062;28;20057;-67
2022/01/12 05:40:24;;;;;;;2.08;1.50;;;17.90;51.60;;;;;;4984444;28;20030;-67
2022/01/12 05:42:51;;;;;;;2.42;1.52;;;17.90;51.50;;;;;;4979697;28;20081;-67
2022/01/12 05:45:18;;;;;;;2.15;1.60;;;17.90;51.30;;;;;;4977444;28;20093;-67
2022/01/12 05:50:10;;;;;;;2.80;1.75;;;18.00;51.20;;;;;;4981395;28;20035;-67
2022/01/12 05:52:35;;;;;;;2.15;1.80;;;18.00;51.00;;;;;;4966449;28;20031;-67
2022/01/12 05:55:02;;;;;;;2.85;1.85;;;18.00;50.90;;;;;;4979874;28;20023;-67
2022/01/12 05:57:30;;;;;;;2.60;1.65;;;18.00;50.90;;;;;;4974793;28;20027;-68
2022/01/12 05:59:56;;;;;;;2.30;1.67;;;18.00;50.80;;;;;;4978147;28;20042;-68
2022/01/12 06:02:21;;;;;;;2.83;1.77;;;18.00;50.80;;;;;;4972437;28;20035;-67
2022/01/12 06:04:47;;;;;;;1.98;1.80;;;18.00;50.80;;;;;;4961234;28;20038;-68
2022/01/12 06:07:12;;;;;;;1.95;1.65;;;18.00;50.70;;;;;;4977347;28;20095;-66
2022/01/12 06:09:38;;;;;;;1.98;1.73;;;18.00;50.70;;;;;;4963193;28;20038;-67
2022/01/12 06:12:04;;;;;;;2.45;1.52;;;18.00;50.60;;;;;;4974263;28;20042;-67
2022/01/12 06:14:30;;;;;;;4.60;1.63;;;18.00;50.60;;;;;;4968402;28;20026;-66
2022/01/12 06:16:55;;;;;;;2.85;1.70;;;18.00;50.70;;;;;;4969072;28;20031;-66
2022/01/12 06:19:21;;;;;;;2.92;1.70;;;18.00;50.70;;;;;;4967685;28;20050;-64
2022/01/12 06:21:46;;;;;;;6.35;2.03;;;18.00;50.90;;;;;;4984696;28;20030;-66
2022/01/12 06:24:12;;;;;;;2.72;1.55;;;18.00;51.00;;;;;;4969511;28;20035;-61
2022/01/12 06:26:38;;;;;;;3.83;1.88;;;18.00;51.10;;;;;;4970547;28;20578;-59
2022/01/12 06:31:38;;;;;;;5.95;1.67;;;18.00;51.20;;;;;;4966674;28;20033;-65
2022/01/12 06:34:04;;;;;;;3.28;1.88;;;18.00;51.20;;;;;;4967385;28;20556;-63
2022/01/12 06:36:29;;;;;;;6.25;1.50;;;18.00;51.20;;;;;;4968572;28;20027;-66
2022/01/12 06:38:55;;;;;;;5.32;1.77;;;18.00;51.10;;;;;;4975396;28;20034;-67
2022/01/12 06:41:20;;;;;;;6.07;1.98;;;17.90;51.10;;;;;;4974519;28;20412;-67
2022/01/12 06:43:46;;;;;;;3.75;1.75;;;17.90;51.00;;;;;;4979024;28;20043;-67
2022/01/12 06:46:13;;;;;;;4.00;2.22;;;18.00;51.00;;;;;;4980569;28;20034;-68
2022/01/12 06:48:39;;;;;;;2.97;2.20;;;18.00;51.00;;;;;;4973857;28;20410;-68
2022/01/12 06:51:05;;;;;;;2.55;1.83;;;18.00;51.00;;;;;;4967256;28;20061;-68
2022/01/12 06:53:32;;;;;;;5.28;1.65;;;17.90;50.90;;;;;;4974798;28;20042;-69
2022/01/12 06:55:58;;;;;;;9.98;3.67;;;17.90;50.80;;;;;;4986242;28;20125;-64
2022/01/12 06:58:24;;;;;;;7.20;3.50;;;17.90;51.20;;;;;;4969629;28;20114;-68
2022/01/12 07:00:50;;;;;;;8.23;2.83;;;17.90;51.10;;;;;;4979137;28;20105;-72
2022/01/12 07:03:15;;;;;;;7.93;2.72;;;17.90;51.10;;;;;;4970270;28;20498;-67
2022/01/12 07:05:41;;;;;;;5.20;2.55;;;17.90;51.00;;;;;;4968423;28;20026;-66
2022/01/12 07:08:06;;;;;;;5.00;2.75;;;17.90;50.90;;;;;;4986306;28;20045;-67
2022/01/12 07:10:32;;;;;;;7.18;2.97;;;17.90;51.10;;;;;;4974972;28;20030;-67
2022/01/12 07:12:57;;;;;;;5.75;2.92;;;17.90;51.30;;;;;;4977952;28;20244;-66
2022/01/12 07:15:23;;;;;;;7.18;3.00;;;17.80;51.40;;;;;;4973739;28;20030;-67
2022/01/12 07:17:49;;;;;;;3.70;2.25;;;17.80;51.70;;;;;;4980395;28;20029;-66
2022/01/12 07:20:15;;;;;;;6.32;2.83;;;17.80;51.70;;;;;;4971361;28;20105;-67
2022/01/12 07:22:41;;;;;;;5.68;2.58;;;17.80;51.60;;;;;;4972937;28;20371;-67
2022/01/12 07:25:07;;;;;;;9.40;2.92;;;17.80;51.50;;;;;;4977223;28;20134;-67
2022/01/12 07:27:32;;;;;;;5.93;2.65;;;17.80;51.40;;;;;;4972947;28;20114;-66
2022/01/12 07:29:58;;;;;;;5.53;2.83;;;17.80;51.40;;;;;;4966882;28;20081;-69
2022/01/12 07:32:23;;;;;;;10.95;3.67;;;17.80;51.30;;;;;;4968661;28;20026;-68
2022/01/12 07:34:50;;;;;;;8.27;3.90;;;17.80;51.60;;;;;;4973491;28;20035;-63
2022/01/12 07:37:16;;;;;;;8.85;3.50;;;17.80;51.90;;;;;;4986285;28;20027;-67
2022/01/12 07:39:41;;;;;;;10.52;3.85;;;17.80;51.90;;;;;;4977148;28;20035;-67
2022/01/12 07:42:07;;;;;;;9.45;4.22;;;17.80;51.90;;;;;;4978043;28;20076;-68
2022/01/12 07:44:32;;;;;;;7.03;3.92;;;17.80;51.90;;;;;;4970036;28;20031;-69
2022/01/12 07:46:58;;;;;;;8.23;3.83;;;17.80;51.80;;;;;;4979599;28;20490;-66
2022/01/12 07:49:23;;;;;;;8.02;3.75;;;17.70;51.80;;;;;;4968638;28;20093;-64
2022/01/12 07:51:49;;;;;;;8.73;3.83;;;17.70;51.80;;;;;;4965199;28;20035;-67
2022/01/12 07:54:14;;;;;;;8.15;3.70;;;17.70;52.10;;;;;;4975757;28;20489;-66
2022/01/12 07:56:40;;;;;;;5.47;3.00;;;17.70;52.20;;;;;;4973189;28;20037;-67
2022/01/12 07:59:05;;;;;;;5.68;3.63;;;17.70;52.10;;;;;;4968249;28;20146;-63
2022/01/12 08:01:31;;;;;;;8.35;3.08;;;17.70;52.10;;;;;;4976070;28;20440;-61
2022/01/12 08:03:57;;;;;;;6.35;3.22;;;17.60;52.00;;;;;;4977197;28;20057;-63
2022/01/12 08:06:22;;;;;;;8.77;3.40;;;17.60;52.10;;;;;;4975468;28;20030;-66
2022/01/12 08:08:48;;;;;;;6.72;2.83;;;17.60;52.10;;;;;;4989581;28;20046;-62
2022/01/12 08:11:13;;;;;;;5.82;2.92;;;17.60;52.20;;;;;;4974283;28;20069;-64
2022/01/12 08:13:39;;;;;;;4.40;2.95;;;17.50;52.10;;;;;;4973054;28;20023;-64
2022/01/12 08:16:05;;;;;;;5.45;2.92;;;17.50;52.20;;;;;;4987355;28;20055;-63
2022/01/12 08:18:30;;;;;;;5.82;2.85;;;17.50;52.30;;;;;;4984345;28;20047;-66
2022/01/12 08:20:56;;;;;;;5.47;3.05;;;17.50;52.30;;;;;;4982655;28;20581;-68
2022/01/12 08:23:21;;;;;;;5.60;3.60;;;17.50;52.30;;;;;;4987158;28;20743;-67
2022/01/12 08:25:47;;;;;;;7.28;3.45;;;17.50;52.40;;;;;;4984799;28;20034;-70
2022/01/12 08:28:12;;;;;;;6.50;3.72;;;17.50;53.30;;;;;;4977617;28;20041;-70
2022/01/12 08:30:38;;;;;;;7.47;3.63;;;17.40;52.70;;;;;;4980309;28;20166;-69
2022/01/12 08:33:04;;;;;;;5.85;3.90;;;17.50;52.70;;;;;;4975989;28;20613;-68
2022/01/12 08:35:30;;;;;;;5.88;3.40;;;17.50;52.70;;;;;;4973516;28;20122;-67
2022/01/12 08:37:57;;;;;;;5.80;3.40;;;17.40;52.70;;;;;;4976148;28;20460;-69
2022/01/12 08:40:22;;;;;;;6.63;3.75;;;17.40;52.70;;;;;;4972743;28;20508;-64
2022/01/12 08:42:48;;;;;;;5.28;3.35;;;17.40;52.70;;;;;;4972486;28;20114;-65
2022/01/12 08:45:14;;;;;;;6.03;3.53;;;17.40;52.80;;;;;;4985012;28;20022;-67
2022/01/12 08:47:40;;;;;;;8.65;3.95;;;17.40;52.80;;;;;;4984406;28;20638;-64
2022/01/12 08:50:06;;;;;;;9.95;4.70;;;17.40;52.80;;;;;;4971978;28;20050;-68
2022/01/12 08:52:31;;;;;;;10.32;4.10;;;17.40;53.20;;;;;;4977008;28;20037;-65
2022/01/12 08:54:57;;;;;;;10.05;4.25;;;17.40;53.40;;;;;;4979602;28;20031;-68
2022/01/12 08:57:22;;;;;;;10.40;4.20;;;17.40;53.50;;;;;;4968632;28;20019;-68
2022/01/12 08:59:48;;;;;;;10.05;5.03;;;17.40;53.60;;;;;;4972585;28;20031;-67
2022/01/12 09:02:14;;;;;;;6.13;4.05;;;17.40;53.60;;;;;;4962083;28;20169;-69
2022/01/12 09:04:43;;;;;;;9.70;4.45;;;17.40;53.70;;;;;;4977828;28;20030;-64
2022/01/12 09:07:09;;;;;;;10.23;4.35;;;17.40;53.80;;;;;;4979025;28;20034;-69
2022/01/12 09:09:35;;;;;;;7.63;3.60;;;17.40;53.80;;;;;;4968937;28;20042;-67
2022/01/12 09:12:01;;;;;;;6.47;4.13;;;17.40;53.80;;;;;;4961801;28;20525;-67
2022/01/12 09:14:27;;;;;;;14.48;4.43;;;17.40;53.80;;;;;;4982316;28;20037;-68
2022/01/12 09:16:56;;;;;;;9.00;4.18;;;17.40;53.80;;;;;;4982551;28;20088;-67
2022/01/12 09:19:22;;;;;;;6.57;3.97;;;17.40;53.80;;;;;;4972355;28;20147;-66
2022/01/12 09:21:48;;;;;;;7.65;3.45;;;17.30;53.70;;;;;;4969119;28;20031;-70
2022/01/12 09:24:14;;;;;;;8.65;3.65;;;17.40;53.80;;;;;;4968540;28;20027;-63
2022/01/12 09:26:39;;;;;;;7.10;3.60;;;17.40;53.80;;;;;;4975480;28;20143;-64
2022/01/12 09:29:05;;;;;;;6.28;3.47;;;17.30;53.70;;;;;;4978109;28;20030;-67
2022/01/12 09:31:30;;;;;;;7.25;3.25;;;17.30;53.60;;;;;;4975301;28;20517;-68
2022/01/12 09:33:56;;;;;;;6.07;3.58;;;17.30;53.70;;;;;;4979464;28;20035;-64
2022/01/12 09:36:21;;;;;;;5.72;3.85;;;17.40;53.70;;;;;;4976256;28;20031;-67
2022/01/12 09:38:47;;;;;;;6.05;3.50;;;17.40;53.60;;;;;;4978969;28;20031;-63
2022/01/12 09:41:12;;;;;;;5.00;3.55;;;17.40;53.60;;;;;;4982326;28;20031;-65
2022/01/12 09:43:39;;;;;;;4.47;2.78;;;17.40;53.50;;;;;;4978087;28;20034;-67
2022/01/12 09:46:04;;;;;;;5.35;3.05;;;17.40;53.20;;;;;;4974834;28;20038;-63
2022/01/12 09:48:33;;;;;;;4.80;3.25;;;17.50;53.00;;;;;;4977100;28;20751;-66
2022/01/12 09:51:01;;;;;;;6.03;3.25;;;17.60;52.80;;;;;;4975270;28;20031;-67
2022/01/12 09:53:28;;;;;;;6.15;3.38;;;17.60;52.70;;;;;;4969677;28;20035;-67
2022/01/12 09:55:54;;;;;;;7.28;3.58;;;17.70;52.70;;;;;;4974847;28;20027;-67
2022/01/12 09:58:19;;;;;;;5.70;3.33;;;17.70;52.50;;;;;;4964217;28;20521;-66
2022/01/12 10:00:58;;;;;;;4.68;3.30;;;17.70;52.30;;;;;;4984901;28;20401;-66
2022/01/12 10:03:25;;;;;;;5.85;3.25;;;17.80;52.40;;;;;;4972520;28;20137;-68
2022/01/12 10:05:50;;;;;;;4.00;3.13;;;17.70;52.60;;;;;;4974379;28;20457;-63
2022/01/12 10:08:16;;;;;;;5.45;2.85;;;17.70;52.90;;;;;;4968196;28;20039;-66
2022/01/12 10:10:43;;;;;;;5.28;2.58;;;17.70;53.10;;;;;;4957877;28;20047;-68
2022/01/12 10:13:23;;;;;;;5.35;3.20;;;17.80;53.20;;;;;;4980324;28;20026;-62
2022/01/12 10:15:54;;;;;;;6.15;3.17;;;17.80;53.20;;;;;;4973481;28;20067;-63
2022/01/12 10:18:22;;;;;;;6.32;2.28;;;17.80;53.20;;;;;;4967613;28;20140;-70
2022/01/12 10:20:48;;;;;;;4.50;2.35;;;17.80;53.30;;;;;;4982814;28;20034;-69
2022/01/12 10:23:15;;;;;;;5.47;2.33;;;17.80;53.20;;;;;;4974091;28;20042;-70
2022/01/12 10:25:45;;;;;;;3.85;2.55;;;17.90;53.30;;;;;;4976729;28;20034;-70
2022/01/12 10:28:19;;;;;;;6.30;2.67;;;17.90;53.40;;;;;;4972826;28;20030;-68
2022/01/12 10:30:58;;;;;;;4.25;3.00;;;17.90;53.70;;;;;;4973963;28;20031;-70
2022/01/12 10:33:24;;;;;;;4.15;2.42;;;17.90;53.40;;;;;;4983886;28;20030;-65
2022/01/12 10:35:54;;;;;;;4.63;2.58;;;17.90;53.50;;;;;;4972901;28;20035;-65
2022/01/12 10:38:21;;;;;;;4.60;2.47;;;17.90;53.50;;;;;;4969088;28;20027;-69
2022/01/12 10:40:55;;;;;;;6.40;2.95;;;17.90;53.50;;;;;;4975814;28;20668;-70
2022/01/12 10:43:34;;;;;;;4.70;2.55;;;17.90;53.60;;;;;;4972603;28;20597;-69
2022/01/12 10:46:05;;;;;;;5.97;2.55;;;17.90;53.50;;;;;;4971525;28;20116;-68
2022/01/12 10:48:55;;;;;;;4.25;2.60;;;17.90;53.50;;;;;;4976218;28;20046;-67
2022/01/12 10:51:25;;;;;;;4.03;2.47;;;17.90;53.50;;;;;;4970488;28;20046;-69
2022/01/12 10:53:51;;;;;;;4.57;2.70;;;17.90;53.40;;;;;;4970762;28;20041;-65
2022/01/12 10:56:21;;;;;;;5.95;2.88;;;17.90;53.30;;;;;;4975918;28;20490;-69
2022/01/12 10:58:48;;;;;;;4.82;2.53;;;17.90;53.20;;;;;;4969567;28;20428;-68
2022/01/12 11:01:14;;;;;;;4.07;2.80;;;17.90;53.10;;;;;;4968010;28;20035;-68
2022/01/12 11:03:40;;;;;;;4.53;2.72;;;17.90;53.00;;;;;;4984096;28;20069;-65
2022/01/12 11:06:06;;;;;;;3.08;2.38;;;17.90;53.00;;;;;;4973831;28;20594;-68
2022/01/12 11:08:31;;;;;;;4.07;2.60;;;17.90;52.90;;;;;;4968937;28;20046;-65
2022/01/12 11:10:58;;;;;;;3.42;2.25;;;17.90;53.00;;;;;;4978436;28;20521;-69
2022/01/12 11:13:24;;;;;;;4.65;2.40;;;17.90;53.20;;;;;;4971524;28;20038;-69
2022/01/12 11:15:50;;;;;;;4.13;2.22;;;17.90;53.20;;;;;;4974061;28;20065;-69
2022/01/12 11:18:16;;;;;;;5.70;2.83;;;17.90;53.30;;;;;;4971489;28;20302;-68
2022/01/12 11:20:42;;;;;;;3.20;2.55;;;17.90;53.30;;;;;;4947464;28;20227;-69
2022/01/12 11:23:12;;;;;;;2.92;2.30;;;17.90;54.00;;;;;;4973458;28;20600;-68
2022/01/12 11:25:40;;;;;;;2.50;2.03;;;17.90;53.30;;;;;;4974973;28;20038;-68
2022/01/12 11:28:20;;;;;;;4.28;2.30;;;17.90;53.30;;;;;;4965739;28;20030;-68
2022/01/12 11:30:52;;;;;;;6.13;2.92;;;17.90;53.50;;;;;;4945118;28;20773;-68
2022/01/12 11:33:22;;;;;;;4.95;2.58;;;17.90;53.50;;;;;;4963206;28;20498;-68
2022/01/12 11:35:50;;;;;;;7.40;2.60;;;17.90;53.50;;;;;;4978532;28;20514;-68
2022/01/12 11:38:30;;;;;;;4.95;2.45;;;17.90;53.60;;;;;;4977983;28;20117;-68
2022/01/12 11:41:27;;;;;;;3.38;2.17;;;17.80;53.50;;;;;;4963991;28;20558;-67
2022/01/12 11:44:10;;;;;;;3.38;2.35;;;17.90;53.70;;;;;;4967764;28;20078;-66
2022/01/12 11:46:48;;;;;;;6.82;2.33;;;17.80;53.60;;;;;;4981878;28;20525;-69
2022/01/12 11:49:44;;;;;;;3.58;2.22;;;17.80;53.70;;;;;;4969369;28;20038;-64
2022/01/12 11:52:13;;;;;;;3.15;2.50;;;17.80;53.70;;;;;;4985417;28;20463;-67
2022/01/12 11:54:39;;;;;;;3.90;2.33;;;17.80;53.70;;;;;;4977563;28;20121;-68
2022/01/12 11:57:07;;;;;;;3.38;2.00;;;17.70;53.80;;;;;;4971818;28;20429;-70
2022/01/12 11:59:53;;;;;;;4.75;2.47;;;17.70;53.80;;;;;;4978410;28;20026;-69
2022/01/12 12:02:22;;;;;;;3.92;2.10;;;17.70;53.90;;;;;;4973678;28;20031;-70
2022/01/12 12:04:55;;;;;;;3.10;2.33;;;17.70;54.10;;;;;;4961821;28;20038;-70
2022/01/12 12:07:22;;;;;;;3.17;2.17;;;17.70;54.10;;;;;;4967407;28;20041;-70
2022/01/12 12:09:52;;;;;;;2.63;2.05;;;17.70;54.10;;;;;;4977476;28;20038;-69
2022/01/12 12:12:19;;;;;;;4.95;2.45;;;17.70;54.20;;;;;;4974938;28;20030;-70
2022/01/12 12:14:47;;;;;;;5.95;2.55;;;17.70;54.20;;;;;;4966947;28;20041;-70
2022/01/12 12:17:12;;;;;;;4.65;2.55;;;17.70;54.30;;;;;;4970870;28;20035;-70
2022/01/12 12:19:38;;;;;;;4.03;2.40;;;17.70;54.30;;;;;;4970338;28;20031;-70
2022/01/12 12:22:20;;;;;;;3.47;1.95;;;17.70;54.40;;;;;;4978546;28;20069;-70
2022/01/12 12:24:47;;;;;;;4.45;2.55;;;17.60;54.40;;;;;;4944957;28;20505;-68
2022/01/12 12:27:17;;;;;;;3.40;2.22;;;17.60;54.50;;;;;;4949170;28;20040;-69
2022/01/12 12:29:44;;;;;;;2.97;2.25;;;17.60;54.60;;;;;;4964608;28;20514;-69
2022/01/12 12:32:13;;;;;;;3.10;2.22;;;17.60;54.60;;;;;;4983038;28;20044;-68
2022/01/12 12:34:39;;;;;;;2.92;2.22;;;17.60;54.70;;;;;;4963652;28;20022;-67
2022/01/12 12:37:05;;;;;;;4.80;2.42;;;17.60;54.70;;;;;;4968148;28;20093;-69
2022/01/12 12:39:32;;;;;;;3.97;2.40;;;17.60;54.70;;;;;;4973899;28;20529;-69
2022/01/12 12:41:58;;;;;;;2.50;2.15;;;17.60;54.80;;;;;;4968394;28;20034;-69
2022/01/12 12:44:25;;;;;;;5.65;2.63;;;17.60;54.80;;;;;;4969223;28;20081;-70
2022/01/12 12:46:51;;;;;;;4.10;2.20;;;17.60;54.90;;;;;;4984986;28;20039;-69
2022/01/12 12:49:17;;;;;;;3.35;2.20;;;17.60;55.00;;;;;;4978657;28;20588;-69
2022/01/12 12:51:42;;;;;;;3.38;2.65;;;17.60;55.00;;;;;;4963306;28;20061;-66
2022/01/12 12:54:08;;;;;;;3.22;1.98;;;17.60;55.00;;;;;;4969718;28;20031;-69
2022/01/12 12:56:40;;;;;;;3.22;2.25;;;17.60;54.90;;;;;;4979760;28;20057;-70
2022/01/12 12:59:07;;;;;;;2.17;1.92;;;17.60;54.90;;;;;;4984013;28;20036;-69
2022/01/12 13:01:32;;;;;;;2.45;2.17;;;17.50;54.80;;;;;;4978532;28;20027;-70
2022/01/12 13:03:59;;;;;;;4.85;2.10;;;17.50;54.80;;;;;;4977518;28;20045;-69
2022/01/12 13:06:29;;;;;;;2.28;1.90;;;17.50;54.80;;;;;;4975592;28;20037;-69
2022/01/12 13:08:56;;;;;;;2.70;2.00;;;17.50;54.80;;;;;;4987326;28;20092;-70
2022/01/12 13:11:29;;;;;;;3.15;2.25;;;17.50;55.40;;;;;;4971597;28;20037;-70
2022/01/12 13:14:02;;;;;;;3.00;2.20;;;17.50;54.80;;;;;;4985556;28;20066;-70
2022/01/12 13:16:28;;;;;;;4.05;1.90;;;17.50;54.80;;;;;;4972086;28;20615;-69
2022/01/12 13:19:04;;;;;;;3.53;2.35;;;17.50;54.80;;;;;;4968301;28;20027;-70
2022/01/12 13:21:30;;;;;;;3.85;2.28;;;17.50;54.80;;;;;;4966861;28;20026;-69
2022/01/12 13:23:57;;;;;;;3.38;2.50;;;17.50;54.90;;;;;;4975524;28;20039;-68
2022/01/12 13:26:23;;;;;;;3.10;2.15;;;17.50;54.90;;;;;;4978934;28;20321;-69
2022/01/12 13:28:50;;;;;;;3.67;1.90;;;17.40;54.90;;;;;;4985537;28;20035;-69
2022/01/12 13:31:17;;;;;;;4.20;1.98;;;17.40;55.00;;;;;;4978175;28;21111;-69
2022/01/12 13:33:50;;;;;;;3.25;2.10;;;17.40;55.10;;;;;;4983266;28;20031;-70
2022/01/12 13:36:19;;;;;;;2.58;2.30;;;17.50;55.10;;;;;;4971207;28;20042;-70
2022/01/12 13:38:53;;;;;;;2.65;1.88;;;17.50;55.10;;;;;;4975648;28;20794;-69
2022/01/12 13:41:25;;;;;;;2.78;2.03;;;17.50;54.90;;;;;;4969607;28;20038;-70
2022/01/12 13:43:59;;;;;;;2.72;1.92;;;17.60;54.70;;;;;;4982374;28;20039;-69
2022/01/12 13:46:34;;;;;;;2.60;2.03;;;17.80;54.50;;;;;;4979759;28;20026;-71
2022/01/12 13:49:09;;;;;;;2.60;2.00;;;17.80;54.30;;;;;;4974771;28;20043;-71
2022/01/12 13:51:37;;;;;;;4.35;2.45;;;17.90;54.10;;;;;;4978267;28;20046;-71
2022/01/12 13:54:10;;;;;;;2.67;1.83;;;17.90;54.10;;;;;;4989387;28;20069;-71
2022/01/12 13:56:41;;;;;;;2.50;1.85;;;18.00;54.00;;;;;;4972615;28;20034;-71
2022/01/12 13:59:07;;;;;;;3.17;2.08;;;18.00;53.90;;;;;;4984280;28;20422;-67
2022/01/12 14:01:33;;;;;;;2.03;1.83;;;18.00;53.90;;;;;;4964916;28;20038;-70
2022/01/12 14:04:09;;;;;;;2.95;2.20;;;18.00;53.80;;;;;;4989720;28;20038;-70
2022/01/12 14:06:39;;;;;;;2.45;1.83;;;18.00;53.80;;;;;;4979034;28;20146;-68
2022/01/12 14:09:22;;;;;;;2.55;2.03;;;18.10;54.40;;;;;;4975031;28;20807;-71